Pagina principale
METAR-TAF:

METAR-TAF

Aeroporti :

Aeroporto di Treviso-Istrana

Treviso, Italia

latitudine: 45-41N, longitudine: 012-06E, altezza: 45 m

Osservazione

Il bollettino è stato emesso 1 ora e 16 minuti fa, alle 07:55 UTC
Vento 4 kt da nord-est
Temperature 9°C
Umidità 76%
Pressione 1027 hPa
Visibilità 10 km o più
nessuna nube inferiore a 1500 m e nessun cumulonembo

METAR: LIPS 170755Z 04004KT CAVOK 09/05 Q1027 RMK SKC VIS MIN 9999 WIND THR26 01004KT WIND THR08 02005KT BLU

Ora: 10:11 (09:11 UTC)

Previsione

Il bollettino è stato emesso 1 ora e 11 minuti fa, alle 08:00 UTC
Previsione valida dal 17 alle 09 UTC al 17 alle 18 UTC
Vento 10 kt da nord-est
Visibilità 10 km o più
Nubi sparse ad un'altezza di 5000 ft

TAF: LIPS 170800Z 1709/1718 05010KT 9999 SCT050

Osservazioni e previsioni meteorologiche di più di 4000 aeroporti (messaggi METAR e TAF).

Le stazioni disponibili sono rappresentate dai dischi gialli e rossi sulla carta.

Puntare il mouse per vedere il nome della stazione.

Clicca sopra per visualizzare le osservazioni e previsioni meteorologiche.

Per cambiare la mappa : fare clic sui pulsanti verdi con una croce nera per ingrandire, il pulsante verde con un trattino per diminuire, o sulla freccia verde per le mappe adiacenti.


METAR-TAF: